Time;durP1;ratioP1;P1;durP2;ratioP2;P2;SDS_P1;SDS_P2;PMS_P1;PMS_P2;Temp;Humidity;BMP_temperature;BMP_pressure;BME280_temperature;BME280_humidity;BME280_pressure;Samples;Min_cycle;Max_cycle;Signal;HPM_P1;HPM_P2
2022/05/04 00:00:19;;;;;;;1.00;1.00;;;20.20;54.50;;;;;;4984164;28;20051;-16
2022/05/04 00:02:45;;;;;;;1.02;1.02;;;20.20;54.60;;;;;;4979592;28;20038;-16
2022/05/04 00:05:10;;;;;;;1.00;1.00;;;20.20;55.20;;;;;;4978843;28;20043;-15
2022/05/04 00:07:36;;;;;;;1.05;1.05;;;20.20;54.60;;;;;;4980036;28;20416;-16
2022/05/04 00:10:02;;;;;;;0.95;0.95;;;20.20;54.60;;;;;;4978882;28;20059;-16
2022/05/04 00:12:28;;;;;;;1.20;1.10;;;20.20;54.60;;;;;;4980547;28;20064;-16
2022/05/04 00:14:54;;;;;;;1.10;1.10;;;20.20;54.60;;;;;;4982875;28;20602;-16
2022/05/04 00:17:19;;;;;;;0.80;0.80;;;20.20;54.60;;;;;;4999531;28;20046;-16
2022/05/04 00:19:45;;;;;;;0.98;0.98;;;20.20;54.60;;;;;;4996487;28;20053;-16
2022/05/04 00:22:10;;;;;;;1.38;1.27;;;20.20;54.60;;;;;;5007851;28;20065;-16
2022/05/04 00:24:36;;;;;;;1.00;1.00;;;20.20;54.60;;;;;;4978119;28;20042;-16
2022/05/04 00:27:02;;;;;;;1.40;1.30;;;20.20;54.60;;;;;;4966969;28;20134;-16
2022/05/04 00:29:27;;;;;;;1.30;1.30;;;20.20;54.70;;;;;;4979779;28;20051;-16
2022/05/04 00:31:53;;;;;;;1.38;1.38;;;20.20;54.60;;;;;;4979047;28;20047;-16
2022/05/04 00:34:18;;;;;;;0.93;0.93;;;20.20;54.70;;;;;;4979661;28;20046;-16
2022/05/04 00:36:44;;;;;;;1.25;1.00;;;20.20;54.70;;;;;;4989156;28;20070;-16
2022/05/04 00:39:10;;;;;;;1.17;1.17;;;20.20;54.60;;;;;;4996830;28;20050;-16
2022/05/04 00:41:35;;;;;;;1.25;1.00;;;20.20;54.60;;;;;;4981435;28;20046;-16
2022/05/04 00:44:01;;;;;;;2.08;1.10;;;20.20;54.70;;;;;;4998209;28;20519;-16
2022/05/04 00:46:26;;;;;;;1.23;1.23;;;20.10;54.70;;;;;;4997412;28;20042;-15
2022/05/04 00:48:52;;;;;;;1.30;1.20;;;20.10;54.80;;;;;;4998299;28;20042;-17
2022/05/04 00:51:17;;;;;;;1.00;1.00;;;20.10;54.80;;;;;;4996897;28;20133;-16
2022/05/04 00:53:43;;;;;;;1.20;1.20;;;20.10;54.90;;;;;;4989255;28;20047;-16
2022/05/04 00:56:09;;;;;;;1.00;1.00;;;20.10;54.80;;;;;;4976116;28;20053;-16
2022/05/04 01:01:29;;;;;;;1.30;1.20;;;20.10;54.80;;;;;;4981589;28;20051;-16
2022/05/04 01:03:55;;;;;;;0.90;0.90;;;20.10;54.80;;;;;;4997833;28;20046;-16
2022/05/04 01:06:21;;;;;;;1.25;0.90;;;20.10;54.80;;;;;;4996807;28;20081;-15
2022/05/04 01:08:50;;;;;;;1.00;1.00;;;20.10;54.90;;;;;;4978652;28;20062;-16
2022/05/04 01:11:18;;;;;;;1.02;1.02;;;20.10;54.90;;;;;;4958834;28;20047;-16
2022/05/04 01:14:00;;;;;;;1.40;1.10;;;20.10;55.00;;;;;;4959667;28;20047;-16
2022/05/04 01:16:26;;;;;;;1.00;1.00;;;20.10;55.00;;;;;;4959245;28;20039;-16
2022/05/04 01:18:52;;;;;;;1.13;1.10;;;20.10;55.00;;;;;;4966218;28;20051;-16
2022/05/04 01:21:18;;;;;;;1.10;1.10;;;20.10;54.90;;;;;;4967199;28;20527;-16
2022/05/04 01:23:43;;;;;;;1.25;1.25;;;20.10;55.00;;;;;;4997950;28;20073;-16
2022/05/04 01:26:09;;;;;;;1.00;1.00;;;20.10;54.90;;;;;;4997416;28;20050;-16
2022/05/04 01:28:34;;;;;;;0.93;0.93;;;20.10;55.00;;;;;;4998293;28;20042;-15
2022/05/04 01:31:00;;;;;;;1.15;1.15;;;20.10;55.00;;;;;;4984216;28;20053;-16
2022/05/04 01:33:25;;;;;;;0.93;0.93;;;20.00;55.00;;;;;;4982667;28;20070;-16
2022/05/04 01:35:51;;;;;;;1.45;1.35;;;20.10;55.00;;;;;;4980499;28;20042;-16
2022/05/04 01:38:17;;;;;;;1.15;1.15;;;20.00;55.00;;;;;;4972166;28;20050;-15
2022/05/04 01:40:42;;;;;;;1.10;1.10;;;20.00;55.00;;;;;;4959000;28;20043;-16
2022/05/04 01:43:08;;;;;;;0.90;0.90;;;20.10;55.10;;;;;;4958601;28;20039;-15
2022/05/04 01:45:33;;;;;;;1.10;1.10;;;20.00;55.00;;;;;;4959058;28;20082;-15
2022/05/04 01:47:59;;;;;;;1.10;1.10;;;20.00;55.00;;;;;;4990140;28;20047;-16
2022/05/04 01:50:25;;;;;;;1.10;1.10;;;20.00;55.00;;;;;;4977445;28;20510;-16
2022/05/04 01:52:50;;;;;;;1.20;1.20;;;20.00;55.00;;;;;;4978075;28;20046;-16
2022/05/04 01:55:16;;;;;;;1.38;1.27;;;20.00;55.00;;;;;;4977291;28;20046;-16
2022/05/04 01:57:41;;;;;;;1.00;1.00;;;20.00;55.10;;;;;;4976775;28;20109;-16
2022/05/04 02:00:07;;;;;;;1.10;1.10;;;20.00;55.00;;;;;;4977516;28;20073;-16
2022/05/04 02:02:33;;;;;;;1.00;1.00;;;20.00;55.00;;;;;;4981331;28;20030;-16
2022/05/04 02:04:59;;;;;;;1.10;1.10;;;20.00;55.00;;;;;;4985970;28;20043;-16
2022/05/04 02:07:24;;;;;;;1.20;1.20;;;20.00;55.00;;;;;;4958212;28;20039;-16
2022/05/04 02:09:50;;;;;;;1.30;1.20;;;20.00;55.10;;;;;;4958519;28;20658;-16
2022/05/04 02:12:16;;;;;;;1.40;1.40;;;20.00;55.10;;;;;;4958119;28;20066;-16
2022/05/04 02:14:41;;;;;;;1.00;1.00;;;20.00;55.20;;;;;;5018547;28;20045;-16
2022/05/04 02:17:07;;;;;;;1.20;1.20;;;20.00;55.10;;;;;;4990270;28;20048;-16
2022/05/04 02:19:32;;;;;;;1.25;1.25;;;19.90;55.10;;;;;;4977954;28;20101;-16
2022/05/04 02:21:58;;;;;;;1.30;1.20;;;20.00;55.10;;;;;;4975799;28;20054;-16
2022/05/04 02:24:24;;;;;;;1.10;1.10;;;19.90;55.10;;;;;;4977758;28;20047;-16
2022/05/04 02:26:49;;;;;;;1.25;1.25;;;19.90;55.10;;;;;;4977517;28;20047;-16
2022/05/04 02:29:15;;;;;;;1.20;1.20;;;19.90;55.10;;;;;;4971761;28;20039;-16
2022/05/04 02:31:40;;;;;;;1.15;1.15;;;19.90;55.10;;;;;;4959244;28;20051;-16
2022/05/04 02:34:06;;;;;;;1.25;1.23;;;19.90;55.10;;;;;;5008001;28;20078;-16
2022/05/04 02:39:16;;;;;;;;;;;19.90;55.10;;;;;;4972587;28;20082;-16
2022/05/04 02:41:41;;;;;;;1.40;1.30;;;19.90;55.10;;;;;;4982784;28;19917;-16
2022/05/04 02:44:07;;;;;;;1.20;1.20;;;19.90;55.10;;;;;;4996158;28;20133;-16
2022/05/04 02:46:33;;;;;;;1.30;1.30;;;19.90;55.10;;;;;;4992011;28;20057;-16
2022/05/04 02:48:58;;;;;;;1.10;1.10;;;19.90;55.10;;;;;;4970141;28;20047;-17
2022/05/04 02:51:24;;;;;;;1.23;1.23;;;19.90;55.10;;;;;;4976363;28;20059;-16
2022/05/04 02:53:49;;;;;;;1.05;1.05;;;19.90;55.10;;;;;;4974730;28;20615;-16
2022/05/04 02:56:15;;;;;;;1.20;1.20;;;19.90;55.20;;;;;;4970310;28;20046;-16
2022/05/04 02:58:44;;;;;;;1.10;1.10;;;19.90;55.20;;;;;;4983207;28;20058;-16
2022/05/04 03:04:02;;;;;;;1.13;1.13;;;19.80;55.20;;;;;;4996530;28;20089;-16
2022/05/04 03:06:28;;;;;;;0.90;0.90;;;19.80;55.30;;;;;;4996159;28;20053;-16
2022/05/04 03:08:54;;;;;;;1.58;1.48;;;19.80;55.30;;;;;;4983231;28;20039;-16
2022/05/04 03:14:07;;;;;;;1.40;1.30;;;19.90;55.20;;;;;;4976186;28;20045;-17
2022/05/04 03:16:33;;;;;;;1.20;1.20;;;19.80;55.10;;;;;;4984105;28;20038;-16
2022/05/04 03:18:59;;;;;;;1.10;1.10;;;19.80;55.20;;;;;;4973785;28;20134;-16
2022/05/04 03:21:24;;;;;;;1.20;1.13;;;19.80;55.20;;;;;;4975880;28;20078;-16
2022/05/04 03:23:50;;;;;;;1.15;1.13;;;19.80;55.10;;;;;;4975708;28;20114;-16
2022/05/04 03:26:16;;;;;;;1.30;1.30;;;19.80;55.20;;;;;;4976025;28;20512;-16
2022/05/04 03:28:41;;;;;;;1.20;1.20;;;19.80;55.20;;;;;;4981923;28;20053;-16
2022/05/04 03:31:07;;;;;;;1.20;1.20;;;19.80;55.20;;;;;;4961157;28;20121;-16
2022/05/04 03:33:33;;;;;;;1.40;1.13;;;19.80;55.20;;;;;;4972436;28;20394;-16
2022/05/04 03:35:59;;;;;;;1.40;1.30;;;19.80;55.20;;;;;;4975052;28;20078;-16
2022/05/04 03:38:25;;;;;;;1.27;1.27;;;19.80;55.20;;;;;;4975944;28;20077;-17
2022/05/04 03:40:51;;;;;;;1.10;1.10;;;19.80;55.10;;;;;;4983408;28;20051;-17
2022/05/04 03:43:16;;;;;;;1.23;1.23;;;19.80;55.20;;;;;;4975673;28;20082;-17
2022/05/04 03:45:42;;;;;;;1.40;1.40;;;19.80;55.30;;;;;;4975809;28;20121;-16
2022/05/04 03:48:08;;;;;;;1.35;1.25;;;19.80;55.30;;;;;;4974301;28;20051;-17
2022/05/04 03:50:33;;;;;;;1.40;1.40;;;19.80;55.20;;;;;;4976385;28;20151;-16
2022/05/04 03:52:59;;;;;;;1.45;1.40;;;19.80;55.20;;;;;;4967318;28;20091;-17
2022/05/04 03:55:24;;;;;;;1.40;1.40;;;19.80;55.20;;;;;;4975491;28;20062;-16
2022/05/04 03:57:50;;;;;;;1.70;1.70;;;19.70;55.30;;;;;;4992461;28;20050;-16
2022/05/04 04:00:16;;;;;;;1.30;1.30;;;19.70;55.30;;;;;;4995213;28;20042;-17
2022/05/04 04:02:42;;;;;;;1.50;1.50;;;19.70;55.20;;;;;;4996392;28;20066;-17
2022/05/04 04:05:08;;;;;;;1.17;1.17;;;19.70;55.30;;;;;;4976667;28;20047;-17
2022/05/04 04:07:34;;;;;;;1.25;1.25;;;19.80;55.20;;;;;;4971688;28;20054;-17
2022/05/04 04:09:59;;;;;;;1.30;1.30;;;19.80;55.20;;;;;;4975697;28;20038;-17
2022/05/04 04:12:25;;;;;;;1.33;1.30;;;19.70;55.30;;;;;;4979728;28;20085;-17
2022/05/04 04:14:50;;;;;;;1.40;1.40;;;19.70;55.20;;;;;;4980561;28;20392;-17
2022/05/04 04:17:16;;;;;;;1.58;1.48;;;19.70;55.20;;;;;;4972175;28;20042;-17
2022/05/04 04:19:41;;;;;;;1.35;1.35;;;19.70;55.30;;;;;;4973950;28;20512;-16
2022/05/04 04:22:07;;;;;;;1.40;1.33;;;19.70;55.20;;;;;;4972200;28;20096;-18
2022/05/04 04:24:33;;;;;;;1.30;1.30;;;19.70;55.20;;;;;;4973006;28;20055;-17
2022/05/04 04:26:58;;;;;;;1.65;1.55;;;19.70;55.30;;;;;;4972930;28;20137;-17
2022/05/04 04:29:24;;;;;;;1.48;1.48;;;19.70;55.30;;;;;;4977282;28;20161;-17
2022/05/04 04:31:49;;;;;;;1.38;1.38;;;19.70;55.20;;;;;;4978156;28;20047;-17
2022/05/04 04:34:15;;;;;;;1.30;1.30;;;19.70;55.30;;;;;;4991318;28;20046;-17
2022/05/04 04:36:42;;;;;;;1.60;1.50;;;19.70;55.20;;;;;;4999016;28;20050;-17
2022/05/04 04:39:08;;;;;;;1.30;1.30;;;19.70;55.20;;;;;;4997365;28;20043;-17
2022/05/04 04:41:33;;;;;;;1.70;1.60;;;19.70;55.20;;;;;;4998936;28;20514;-17
2022/05/04 04:43:59;;;;;;;1.50;1.42;;;19.70;55.30;;;;;;4973465;28;20075;-17
2022/05/04 04:46:25;;;;;;;1.67;1.67;;;19.70;55.20;;;;;;4959503;28;20584;-17
2022/05/04 04:48:51;;;;;;;1.30;1.30;;;19.70;55.30;;;;;;4960278;28;20047;-17
2022/05/04 04:51:16;;;;;;;1.65;1.55;;;19.70;55.30;;;;;;4971966;28;20058;-17
2022/05/04 04:53:42;;;;;;;1.67;1.63;;;19.60;55.30;;;;;;4978252;28;20050;-17
2022/05/04 04:56:08;;;;;;;1.45;1.45;;;19.70;55.20;;;;;;4972331;28;20074;-17
2022/05/04 04:58:33;;;;;;;1.60;1.52;;;19.60;55.20;;;;;;4978246;28;20046;-17
2022/05/04 05:00:59;;;;;;;1.50;1.48;;;19.70;55.80;;;;;;4983079;28;20043;-17
2022/05/04 05:03:25;;;;;;;1.38;1.30;;;19.60;55.20;;;;;;4978195;28;20480;-17
2022/05/04 05:05:50;;;;;;;1.73;1.63;;;19.70;55.40;;;;;;4971695;28;20586;-17
2022/05/04 05:08:16;;;;;;;1.60;1.50;;;19.60;55.40;;;;;;4964634;28;20066;-17
2022/05/04 05:10:41;;;;;;;1.95;1.85;;;19.60;55.30;;;;;;4988110;28;20047;-17
2022/05/04 05:13:07;;;;;;;1.65;1.60;;;19.60;55.70;;;;;;4975437;28;20055;-17
2022/05/04 05:18:20;;;;;;;1.80;1.70;;;19.60;56.00;;;;;;4971746;28;20794;-16
2022/05/04 05:20:46;;;;;;;2.20;2.00;;;19.60;56.10;;;;;;4970264;28;20408;-16
2022/05/04 05:23:12;;;;;;;2.08;1.80;;;19.60;56.00;;;;;;4971289;28;20523;-17
2022/05/04 05:25:37;;;;;;;2.00;1.90;;;19.60;56.10;;;;;;4973798;28;20074;-16
2022/05/04 05:28:03;;;;;;;1.90;1.80;;;19.60;56.10;;;;;;4974198;28;20043;-17
2022/05/04 05:30:29;;;;;;;2.05;1.95;;;19.60;56.00;;;;;;4972662;28;20043;-17
2022/05/04 05:32:54;;;;;;;1.95;1.85;;;19.60;56.00;;;;;;4971059;28;20792;-17
2022/05/04 05:35:20;;;;;;;1.95;1.85;;;19.60;56.00;;;;;;4964363;28;20047;-17
2022/05/04 05:37:46;;;;;;;3.70;2.05;;;19.60;56.10;;;;;;4973669;28;20109;-16
2022/05/04 05:40:12;;;;;;;3.03;2.00;;;19.60;56.30;;;;;;4984099;28;20034;-17
2022/05/04 05:42:38;;;;;;;2.95;1.83;;;19.60;56.40;;;;;;4973942;28;20129;-16
2022/05/04 05:45:03;;;;;;;2.30;2.20;;;19.60;56.60;;;;;;4973351;28;20519;-17
2022/05/04 05:47:29;;;;;;;1.70;1.60;;;19.60;56.70;;;;;;4994373;28;20063;-17
2022/05/04 05:49:55;;;;;;;2.95;2.28;;;19.60;56.50;;;;;;4973940;28;20046;-17
2022/05/04 05:52:20;;;;;;;6.40;2.45;;;19.70;56.20;;;;;;4974528;28;20138;-17
2022/05/04 05:54:46;;;;;;;2.17;1.98;;;19.70;56.20;;;;;;4975673;28;20047;-17
2022/05/04 05:57:11;;;;;;;2.50;1.80;;;19.70;56.20;;;;;;4992170;28;20050;-18
2022/05/04 05:59:37;;;;;;;3.20;1.83;;;19.70;56.20;;;;;;4997569;28;20141;-17
2022/05/04 06:02:03;;;;;;;1.60;1.50;;;19.70;56.10;;;;;;4997569;28;20042;-16
2022/05/04 06:04:28;;;;;;;2.35;2.15;;;19.70;56.10;;;;;;4995152;28;20065;-17
2022/05/04 06:06:54;;;;;;;3.58;2.20;;;19.70;56.00;;;;;;4997468;28;20488;-17
2022/05/04 06:09:20;;;;;;;3.70;2.28;;;19.60;56.20;;;;;;4995856;28;20042;-17
2022/05/04 06:11:45;;;;;;;3.05;2.90;;;19.60;56.10;;;;;;4962652;28;20082;-17
2022/05/04 06:14:11;;;;;;;5.35;5.03;;;19.60;56.00;;;;;;4964637;28;20042;-18
2022/05/04 06:16:37;;;;;;;5.43;5.03;;;19.60;55.60;;;;;;4965023;28;20051;-17
2022/05/04 06:19:03;;;;;;;5.80;5.25;;;19.60;55.60;;;;;;4958534;28;20061;-18
2022/05/04 06:21:29;;;;;;;6.03;5.43;;;19.60;55.30;;;;;;4959916;28;20116;-19
2022/05/04 06:23:55;;;;;;;5.43;5.10;;;19.60;55.40;;;;;;4962846;28;20062;-16
2022/05/04 06:26:23;;;;;;;5.78;5.38;;;19.60;55.40;;;;;;4962517;28;20109;-17
2022/05/04 06:28:48;;;;;;;5.70;5.22;;;19.50;55.20;;;;;;4962148;28;20583;-16
2022/05/04 06:34:07;;;;;;;5.75;5.25;;;19.60;55.10;;;;;;4962756;28;20138;-17
2022/05/04 06:36:33;;;;;;;5.85;5.45;;;19.60;55.10;;;;;;4962028;28;21244;-17
2022/05/04 06:38:59;;;;;;;6.30;5.80;;;19.60;55.10;;;;;;4962762;28;20054;-18
2022/05/04 06:41:25;;;;;;;5.97;5.47;;;19.60;55.00;;;;;;4958026;28;20583;-17
2022/05/04 06:43:50;;;;;;;6.00;5.50;;;19.60;55.10;;;;;;4961455;28;20539;-16
2022/05/04 06:46:16;;;;;;;8.15;6.10;;;19.50;55.00;;;;;;4961353;28;20065;-17
2022/05/04 06:48:42;;;;;;;6.03;5.63;;;19.50;54.90;;;;;;4962155;28;20665;-17
2022/05/04 06:51:08;;;;;;;6.60;6.10;;;19.50;54.90;;;;;;4957602;28;20465;-17
2022/05/04 06:53:34;;;;;;;6.68;6.00;;;19.60;54.80;;;;;;4961455;28;20054;-18
2022/05/04 06:56:00;;;;;;;6.75;6.18;;;19.60;54.70;;;;;;4961696;28;20058;-17
2022/05/04 06:58:25;;;;;;;6.05;5.55;;;19.50;54.90;;;;;;4961682;28;21137;-17
2022/05/04 07:00:51;;;;;;;6.32;5.88;;;19.50;54.80;;;;;;4960441;28;20058;-18
2022/05/04 07:03:17;;;;;;;6.43;5.90;;;19.60;54.90;;;;;;4960758;28;20751;-17
2022/05/04 07:05:43;;;;;;;6.78;6.28;;;19.50;55.00;;;;;;4972972;28;20034;-17
2022/05/04 07:08:08;;;;;;;6.43;5.93;;;19.50;55.10;;;;;;4976746;28;20059;-17
2022/05/04 07:10:34;;;;;;;6.88;6.38;;;19.50;55.20;;;;;;4975822;28;21265;-17
2022/05/04 07:13:00;;;;;;;7.32;6.68;;;19.40;55.30;;;;;;4976909;28;20039;-17
2022/05/04 07:15:26;;;;;;;6.82;6.30;;;19.50;55.10;;;;;;4976173;28;20034;-17
2022/05/04 07:17:51;;;;;;;7.22;6.72;;;19.50;55.00;;;;;;4975426;28;20055;-17
2022/05/04 07:20:17;;;;;;;7.20;5.63;;;19.50;55.10;;;;;;4975790;28;20057;-19
2022/05/04 07:22:42;;;;;;;4.18;3.88;;;19.50;55.20;;;;;;4957194;28;20440;-17
2022/05/04 07:25:08;;;;;;;4.15;3.75;;;19.60;55.50;;;;;;4956998;28;20042;-17
2022/05/04 07:27:34;;;;;;;4.38;4.07;;;19.60;55.40;;;;;;4961365;28;20050;-17
2022/05/04 07:30:00;;;;;;;5.60;5.18;;;19.70;55.30;;;;;;4976012;28;20101;-18
2022/05/04 07:32:25;;;;;;;7.00;6.40;;;19.60;55.50;;;;;;4975804;28;20046;-17
2022/05/04 07:34:51;;;;;;;6.97;6.40;;;19.50;55.50;;;;;;4976193;28;20080;-18
2022/05/04 07:37:17;;;;;;;10.48;7.95;;;19.50;55.60;;;;;;4975532;28;20575;-17
2022/05/04 07:42:26;;;;;;;10.45;9.40;;;19.50;55.60;;;;;;4975724;28;20053;-18
2022/05/04 07:44:59;;;;;;;10.32;9.20;;;19.40;55.80;;;;;;4976343;28;20051;-19
2022/05/04 07:47:29;;;;;;;9.30;8.45;;;19.40;56.00;;;;;;4975637;28;20054;-18
2022/05/04 07:49:55;;;;;;;9.68;8.60;;;19.30;56.80;;;;;;4989560;28;20503;-18
2022/05/04 07:52:21;;;;;;;9.80;8.90;;;19.30;56.30;;;;;;4994858;28;20711;-17
2022/05/04 07:54:46;;;;;;;10.55;9.55;;;19.30;56.40;;;;;;4976791;28;20050;-18
2022/05/04 07:57:12;;;;;;;12.32;9.52;;;19.30;56.40;;;;;;4975178;28;20400;-18
2022/05/04 07:59:38;;;;;;;11.50;10.40;;;19.30;56.50;;;;;;4975705;28;20150;-17
2022/05/04 08:04:49;;;;;;;16.25;10.55;;;19.30;56.60;;;;;;4998840;28;20057;-17
2022/05/04 08:07:15;;;;;;;11.35;10.25;;;19.30;56.70;;;;;;4997061;28;20097;-15
2022/05/04 08:09:41;;;;;;;11.80;10.68;;;19.30;56.70;;;;;;4976370;28;20088;-17
2022/05/04 08:12:08;;;;;;;12.02;10.85;;;19.40;56.60;;;;;;4978301;28;20043;-15
2022/05/04 08:14:34;;;;;;;13.55;9.18;;;19.40;56.60;;;;;;4979384;28;20046;-16
2022/05/04 08:17:00;;;;;;;11.32;10.30;;;19.40;56.70;;;;;;4992828;28;20046;-15
2022/05/04 08:19:26;;;;;;;12.85;10.60;;;19.30;56.90;;;;;;4997347;28;20797;-15
2022/05/04 08:21:52;;;;;;;14.60;10.70;;;19.30;56.90;;;;;;4998978;28;20073;-15
2022/05/04 08:24:18;;;;;;;10.38;9.48;;;19.40;56.60;;;;;;4997708;28;20038;-16
2022/05/04 08:26:43;;;;;;;10.15;9.23;;;19.50;56.50;;;;;;4978413;28;20047;-17
2022/05/04 08:29:09;;;;;;;10.13;9.20;;;19.50;56.50;;;;;;4974573;28;20451;-16
2022/05/04 08:31:36;;;;;;;11.60;10.38;;;19.50;56.60;;;;;;4960137;28;20046;-18
2022/05/04 08:34:01;;;;;;;10.60;9.52;;;19.50;56.50;;;;;;4969053;28;20425;-19
2022/05/04 08:36:27;;;;;;;11.07;9.98;;;19.40;56.50;;;;;;4978859;28;20042;-17
2022/05/04 08:38:53;;;;;;;10.40;9.45;;;19.40;56.60;;;;;;4978995;28;20049;-19
2022/05/04 08:41:18;;;;;;;10.45;9.50;;;19.50;56.30;;;;;;4978199;28;20039;-16
2022/05/04 08:43:44;;;;;;;10.25;9.25;;;19.60;56.10;;;;;;4977330;28;20077;-16
2022/05/04 08:46:13;;;;;;;10.05;9.05;;;19.60;56.00;;;;;;4977241;28;20050;-16
2022/05/04 08:48:38;;;;;;;9.40;8.48;;;19.60;55.90;;;;;;4977294;28;20054;-16
2022/05/04 08:51:04;;;;;;;9.75;8.77;;;19.60;55.90;;;;;;4978107;28;20039;-17
2022/05/04 08:53:30;;;;;;;10.20;9.23;;;19.70;55.60;;;;;;4976837;28;20116;-17
2022/05/04 08:55:55;;;;;;;8.88;8.07;;;19.70;55.50;;;;;;4978863;28;20448;-17
2022/05/04 08:58:21;;;;;;;9.10;8.40;;;19.70;55.40;;;;;;4983947;28;20043;-17
2022/05/04 09:00:47;;;;;;;8.80;8.10;;;19.60;55.30;;;;;;4978909;28;20046;-27
2022/05/04 09:03:12;;;;;;;10.63;9.57;;;19.70;55.20;;;;;;4978658;28;20074;-17
2022/05/04 09:05:40;;;;;;;8.98;8.20;;;19.70;54.90;;;;;;4976851;28;20089;-17
2022/05/04 09:08:06;;;;;;;8.30;7.55;;;19.70;54.60;;;;;;4993478;28;20050;-16
2022/05/04 09:10:37;;;;;;;8.27;7.47;;;19.80;54.40;;;;;;4995225;28;20494;-17
2022/05/04 09:13:03;;;;;;;7.88;7.15;;;19.80;54.30;;;;;;4976761;28;20089;-16
2022/05/04 09:15:33;;;;;;;6.97;6.38;;;19.80;54.10;;;;;;4978256;28;20073;-16
2022/05/04 09:18:00;;;;;;;6.65;6.13;;;19.80;54.10;;;;;;4978976;28;20639;-16
2022/05/04 09:20:55;;;;;;;7.28;6.68;;;19.80;54.10;;;;;;4977854;28;20043;-17
2022/05/04 09:23:30;;;;;;;7.78;7.05;;;19.80;54.20;;;;;;4977051;28;20420;-16
2022/05/04 09:26:00;;;;;;;6.82;6.32;;;19.80;54.10;;;;;;4977948;28;20043;-16
2022/05/04 09:28:27;;;;;;;6.68;6.13;;;19.80;54.00;;;;;;4977924;28;20564;-17
2022/05/04 09:31:04;;;;;;;7.78;6.97;;;19.90;53.90;;;;;;4978234;28;20043;-17
2022/05/04 09:33:32;;;;;;;11.07;6.55;;;20.00;53.80;;;;;;4976217;28;20129;-17
2022/05/04 09:35:58;;;;;;;6.90;6.40;;;20.00;53.60;;;;;;4993250;28;20050;-17
2022/05/04 09:46:42;;;;;;;5.85;5.35;;;20.00;53.90;;;;;;4977468;28;20045;-16
2022/05/04 09:49:12;;;;;;;5.53;5.13;;;20.00;53.90;;;;;;4978351;28;20047;-16
2022/05/04 09:51:39;;;;;;;5.68;5.28;;;20.00;54.00;;;;;;4976639;28;20142;-16
2022/05/04 09:54:16;;;;;;;5.05;4.65;;;20.00;54.10;;;;;;4976950;28;20102;-16
2022/05/04 09:56:44;;;;;;;5.50;5.07;;;20.00;54.20;;;;;;4625650;28;10000086;-16
2022/05/04 09:59:09;;;;;;;6.18;5.78;;;20.00;54.10;;;;;;4972066;28;20579;-16
2022/05/04 10:01:35;;;;;;;6.22;5.68;;;20.10;54.10;;;;;;4964942;28;20470;-16
2022/05/04 10:04:03;;;;;;;5.03;4.65;;;20.10;54.10;;;;;;4961108;28;20054;-16
2022/05/04 10:06:29;;;;;;;6.78;5.75;;;20.10;54.10;;;;;;4969800;28;20038;-16
2022/05/04 10:08:55;;;;;;;6.00;5.60;;;20.10;54.30;;;;;;4966088;28;20046;-16
2022/05/04 10:11:20;;;;;;;6.00;5.45;;;20.10;54.30;;;;;;4967298;28;20047;-16
2022/05/04 10:13:46;;;;;;;6.30;5.90;;;20.10;54.30;;;;;;4964295;28;20051;-17
2022/05/04 10:16:11;;;;;;;6.00;5.50;;;20.10;54.30;;;;;;4960754;28;20097;-16
2022/05/04 10:18:37;;;;;;;6.60;6.05;;;20.10;54.20;;;;;;4971438;28;20055;-16
2022/05/04 10:21:05;;;;;;;6.10;4.43;;;20.10;54.20;;;;;;4972025;28;20393;-16
2022/05/04 10:23:35;;;;;;;5.13;4.72;;;20.20;54.00;;;;;;4972998;28;20172;-16
2022/05/04 10:26:00;;;;;;;5.13;4.72;;;20.20;53.80;;;;;;4948716;28;20039;-16
2022/05/04 10:28:26;;;;;;;5.63;5.22;;;20.20;53.60;;;;;;4999837;28;20507;-16
2022/05/04 10:30:51;;;;;;;5.97;5.45;;;20.20;52.90;;;;;;4975309;28;20043;-16
2022/05/04 10:33:18;;;;;;;5.65;5.10;;;20.20;52.20;;;;;;4968131;28;20051;-16
2022/05/04 10:35:45;;;;;;;4.75;4.43;;;20.20;52.80;;;;;;4969279;28;20073;-16
2022/05/04 10:38:35;;;;;;;4.85;4.55;;;20.20;53.10;;;;;;4963938;28;20051;-16
2022/05/04 10:41:02;;;;;;;5.18;4.88;;;20.20;52.50;;;;;;4987115;28;20058;-16
2022/05/04 10:43:41;;;;;;;4.32;4.03;;;20.20;51.90;;;;;;4976831;28;20050;-15
2022/05/04 10:46:10;;;;;;;4.95;4.55;;;20.20;52.30;;;;;;4963147;28;20042;-16
2022/05/04 10:48:40;;;;;;;5.63;5.22;;;20.20;52.30;;;;;;4973762;28;20134;-16
2022/05/04 10:51:18;;;;;;;4.70;4.45;;;20.30;52.30;;;;;;4963196;28;20043;-16
2022/05/04 10:53:45;;;;;;;3.80;3.50;;;20.30;52.70;;;;;;4974258;28;20057;-16
2022/05/04 10:56:15;;;;;;;5.05;4.50;;;20.50;53.00;;;;;;4969081;28;20051;-17
2022/05/04 10:58:50;;;;;;;4.50;4.20;;;20.40;52.30;;;;;;4965816;28;20047;-17
2022/05/04 11:01:20;;;;;;;4.15;3.83;;;20.30;52.80;;;;;;4969566;28;20059;-17
2022/05/04 11:03:58;;;;;;;7.65;4.18;;;20.40;53.00;;;;;;4970331;28;20081;-16
2022/05/04 11:06:37;;;;;;;4.80;4.50;;;20.40;53.10;;;;;;4964835;28;20536;-16
2022/05/04 11:09:10;;;;;;;4.32;4.03;;;20.40;53.10;;;;;;4964282;28;20038;-17
2022/05/04 11:11:43;;;;;;;3.63;3.33;;;20.40;53.20;;;;;;4967773;28;20126;-17
2022/05/04 11:14:09;;;;;;;3.08;2.95;;;20.40;52.60;;;;;;4969317;28;20045;-17
2022/05/04 11:16:35;;;;;;;3.80;3.60;;;20.40;52.70;;;;;;4967793;28;20102;-16
2022/05/04 11:19:02;;;;;;;4.20;3.90;;;20.50;52.20;;;;;;4971112;28;20051;-16
2022/05/04 11:21:28;;;;;;;4.63;4.32;;;20.40;52.70;;;;;;4969006;28;20137;-18
2022/05/04 11:23:56;;;;;;;4.45;4.15;;;20.50;52.60;;;;;;4966641;28;20515;-16
2022/05/04 11:26:23;;;;;;;4.38;4.05;;;20.50;52.60;;;;;;4972324;28;20567;-17
2022/05/04 11:28:50;;;;;;;4.60;4.22;;;20.50;52.60;;;;;;4968418;28;20145;-16
2022/05/04 11:31:16;;;;;;;4.63;4.32;;;20.40;52.50;;;;;;4968905;28;20062;-18
2022/05/04 11:33:46;;;;;;;4.93;4.63;;;20.40;52.50;;;;;;4968935;28;20050;-16
2022/05/04 11:36:12;;;;;;;4.80;4.50;;;20.50;52.40;;;;;;4969334;28;20787;-17
2022/05/04 11:38:38;;;;;;;4.70;4.30;;;20.50;52.40;;;;;;4968280;28;20130;-16
2022/05/04 11:41:04;;;;;;;4.50;4.20;;;20.50;52.30;;;;;;4967485;28;20684;-17
2022/05/04 11:43:33;;;;;;;4.40;4.10;;;20.50;52.50;;;;;;4967795;28;20047;-17
2022/05/04 11:46:18;;;;;;;3.85;3.65;;;20.60;53.00;;;;;;4967244;28;20524;-17
2022/05/04 11:48:45;;;;;;;4.18;3.88;;;20.60;52.50;;;;;;4970943;28;20105;-17
2022/05/04 11:51:12;;;;;;;4.10;3.80;;;20.60;53.30;;;;;;4969082;28;20074;-19
2022/05/04 11:53:38;;;;;;;4.07;3.78;;;20.60;52.50;;;;;;4966787;28;20043;-18
2022/05/04 11:56:04;;;;;;;4.15;3.85;;;20.60;52.30;;;;;;4961364;28;20059;-17
2022/05/04 11:58:34;;;;;;;3.72;3.53;;;20.70;52.50;;;;;;4969947;28;20054;-16
2022/05/04 12:01:00;;;;;;;4.35;4.00;;;20.70;52.00;;;;;;4971962;28;20074;-18
2022/05/04 12:03:26;;;;;;;4.15;3.85;;;20.70;51.80;;;;;;4970424;28;20134;-19
2022/05/04 12:05:53;;;;;;;3.90;3.60;;;20.60;52.00;;;;;;4973743;28;20111;-16
2022/05/04 12:08:19;;;;;;;3.45;3.17;;;20.60;52.10;;;;;;4999451;28;20070;-17
2022/05/04 12:10:50;;;;;;;3.80;3.50;;;20.70;53.30;;;;;;4971455;28;20483;-18
2022/05/04 12:13:24;;;;;;;3.80;3.47;;;20.80;52.40;;;;;;4987659;28;20134;-18
2022/05/04 12:15:50;;;;;;;;;;;20.70;52.00;;;;;;4974834;28;20039;-17
2022/05/04 12:18:16;;;;;;;2.80;2.60;;;20.80;52.00;;;;;;4986841;28;19914;-16
2022/05/04 12:20:45;;;;;;;3.80;2.90;;;20.80;52.10;;;;;;4976908;28;20053;-16
2022/05/04 12:23:12;;;;;;;3.28;3.08;;;20.80;52.10;;;;;;4970496;28;20058;-16
2022/05/04 12:25:39;;;;;;;3.58;2.85;;;20.80;51.80;;;;;;4973193;28;20950;-17
2022/05/04 12:28:05;;;;;;;3.13;2.92;;;20.80;51.80;;;;;;4973219;28;20047;-17
2022/05/04 12:33:15;;;;;;;2.45;2.35;;;20.90;51.40;;;;;;4965389;28;20050;-17
2022/05/04 12:35:45;;;;;;;3.08;2.88;;;20.90;50.80;;;;;;4973459;28;20663;-18
2022/05/04 12:38:13;;;;;;;4.88;2.92;;;20.90;50.70;;;;;;4969369;28;20042;-17
2022/05/04 12:40:39;;;;;;;3.03;2.83;;;20.90;50.10;;;;;;4971073;28;20054;-17
2022/05/04 12:43:05;;;;;;;2.67;2.47;;;20.90;51.50;;;;;;4972250;28;20054;-18
2022/05/04 12:45:35;;;;;;;2.22;2.13;;;20.90;51.40;;;;;;4972812;28;20047;-17
2022/05/04 12:48:00;;;;;;;2.03;1.92;;;20.90;51.50;;;;;;4972394;28;20073;-19
2022/05/04 12:50:27;;;;;;;2.20;2.10;;;20.90;51.80;;;;;;4976064;28;20039;-18
2022/05/04 12:52:53;;;;;;;2.33;1.90;;;21.00;51.80;;;;;;4960459;28;20066;-17
2022/05/04 12:55:19;;;;;;;2.10;2.00;;;21.00;51.90;;;;;;4979053;28;20046;-17
2022/05/04 12:57:44;;;;;;;1.90;1.80;;;21.00;52.00;;;;;;4972878;28;20050;-17
2022/05/04 13:00:12;;;;;;;1.67;1.60;;;21.00;52.00;;;;;;4972184;28;20061;-17
2022/05/04 13:02:42;;;;;;;1.80;1.70;;;21.00;52.10;;;;;;4965866;28;20066;-18
2022/05/04 13:05:08;;;;;;;1.58;1.48;;;21.10;52.10;;;;;;5005285;28;20043;-16
2022/05/04 13:07:35;;;;;;;1.67;1.58;;;21.10;52.30;;;;;;4970511;28;20122;-18
2022/05/04 13:10:01;;;;;;;1.88;1.77;;;21.10;52.00;;;;;;4999469;28;20055;-16
2022/05/04 13:12:26;;;;;;;1.60;1.50;;;21.10;52.10;;;;;;4978933;28;20053;-17
2022/05/04 13:14:52;;;;;;;1.50;1.40;;;21.10;52.00;;;;;;4975194;28;20042;-17